createdAt,value
2022-12-22T00:02:11.729Z,1.23
2022-12-22T00:06:34.090Z,0.90
2022-12-22T00:10:55.189Z,0.95
2022-12-22T00:15:16.427Z,0.70
2022-12-22T00:19:36.927Z,0.73
2022-12-22T00:23:58.603Z,0.75
2022-12-22T00:28:19.485Z,0.63
2022-12-22T00:32:41.273Z,0.70
2022-12-22T00:37:02.195Z,0.77
2022-12-22T00:41:24.465Z,0.70
2022-12-22T00:45:45.290Z,0.40
2022-12-22T00:50:07.914Z,0.65
2022-12-22T00:54:29.646Z,0.70
2022-12-22T00:58:51.321Z,0.60
2022-12-22T01:03:12.120Z,0.57
2022-12-22T01:07:34.714Z,0.60
2022-12-22T01:11:55.565Z,0.70
2022-12-22T01:16:18.220Z,0.57
2022-12-22T01:20:38.882Z,0.60
2022-12-22T01:24:59.369Z,0.80
2022-12-22T01:29:19.876Z,1.05
2022-12-22T01:33:41.630Z,0.73
2022-12-22T01:38:02.040Z,0.65
2022-12-22T01:42:22.723Z,0.93
2022-12-22T01:46:44.849Z,1.90
2022-12-22T01:51:07.208Z,1.70
2022-12-22T01:55:31.971Z,1.10
2022-12-22T01:59:53.247Z,1.40
2022-12-22T02:04:14.233Z,1.75
2022-12-22T02:08:45.133Z,1.65
2022-12-22T02:13:15.703Z,2.17
2022-12-22T02:17:44.681Z,1.75
2022-12-22T02:22:17.288Z,1.92
2022-12-22T02:26:46.189Z,1.60
2022-12-22T02:31:09.031Z,1.88
2022-12-22T02:35:31.163Z,1.25
2022-12-22T02:39:59.042Z,1.55
2022-12-22T02:44:40.751Z,1.80
2022-12-22T02:49:09.334Z,1.98
2022-12-22T02:53:32.560Z,1.88
2022-12-22T02:57:53.132Z,1.55
2022-12-22T03:02:15.782Z,1.92
2022-12-22T03:06:36.393Z,2.30
2022-12-22T03:10:57.064Z,1.90
2022-12-22T03:15:17.400Z,1.90
2022-12-22T03:19:39.106Z,2.00
2022-12-22T03:23:59.965Z,2.10
2022-12-22T03:28:04.324Z,2.67
2022-12-22T03:32:07.448Z,1.75
2022-12-22T03:36:12.541Z,2.38
2022-12-22T03:40:15.736Z,2.17
2022-12-22T03:44:36.501Z,2.13
2022-12-22T03:48:39.747Z,2.30
2022-12-22T03:52:44.135Z,2.00
2022-12-22T03:56:47.642Z,2.58
2022-12-22T04:00:50.841Z,2.47
2022-12-22T04:04:54.019Z,2.42
2022-12-22T04:08:58.411Z,2.13
2022-12-22T04:13:01.492Z,2.83
2022-12-22T04:17:05.757Z,2.85
2022-12-22T04:21:08.846Z,2.33
2022-12-22T04:25:13.412Z,2.58
2022-12-22T04:29:16.584Z,2.60
2022-12-22T04:33:19.778Z,2.55
2022-12-22T04:37:22.815Z,2.45
2022-12-22T04:41:27.335Z,2.25
2022-12-22T04:45:30.468Z,2.28
2022-12-22T04:49:34.033Z,2.47
2022-12-22T04:53:37.143Z,2.25
2022-12-22T04:57:41.645Z,2.53
2022-12-22T05:01:45.006Z,2.28
2022-12-22T05:05:48.178Z,2.47
2022-12-22T05:09:51.204Z,2.83
2022-12-22T05:13:55.740Z,1.98
2022-12-22T05:17:59.728Z,2.17
2022-12-22T05:22:03.055Z,2.35
2022-12-22T05:26:06.538Z,2.13
2022-12-22T05:30:13.321Z,2.30
2022-12-22T05:34:16.341Z,2.88
2022-12-22T05:38:19.370Z,3.13
2022-12-22T05:46:53.220Z,2.75
2022-12-22T05:50:56.228Z,2.60
2022-12-22T05:54:59.278Z,2.67
2022-12-22T05:59:02.278Z,2.42
2022-12-22T06:03:06.836Z,2.95
2022-12-22T06:07:09.893Z,4.22
2022-12-22T06:11:12.875Z,3.58
2022-12-22T06:15:16.261Z,2.67
2022-12-22T06:19:20.645Z,2.92
2022-12-22T06:23:24.295Z,3.15
2022-12-22T06:27:27.344Z,2.75
2022-12-22T06:31:30.426Z,5.45
2022-12-22T06:35:34.852Z,2.75
2022-12-22T06:39:37.848Z,3.15
2022-12-22T06:43:40.964Z,3.55
2022-12-22T06:47:44.042Z,3.72
2022-12-22T06:51:48.672Z,3.45
2022-12-22T06:55:51.723Z,3.22
2022-12-22T06:59:57.663Z,3.03
2022-12-22T07:04:01.263Z,3.45
2022-12-22T07:08:09.045Z,4.35
2022-12-22T07:12:12.459Z,2.97
2022-12-22T07:16:15.632Z,4.07
2022-12-22T07:20:18.778Z,4.85
2022-12-22T07:24:26.061Z,5.05
2022-12-22T07:28:29.326Z,6.00
2022-12-22T07:32:32.368Z,6.53
2022-12-22T07:36:35.610Z,3.88
2022-12-22T07:40:42.376Z,3.35
2022-12-22T07:44:46.098Z,5.70
2022-12-22T07:49:06.658Z,4.85
2022-12-22T07:53:09.748Z,5.60
2022-12-22T07:57:14.152Z,4.18
2022-12-22T08:01:17.191Z,5.53
2022-12-22T08:05:20.879Z,4.57
2022-12-22T08:09:23.893Z,4.75
2022-12-22T08:13:28.321Z,5.15
2022-12-22T08:17:31.414Z,5.65
2022-12-22T08:21:34.467Z,3.17
2022-12-22T08:25:37.744Z,4.55
2022-12-22T08:29:45.246Z,6.50
2022-12-22T08:33:49.004Z,5.32
2022-12-22T08:37:53.300Z,8.07
2022-12-22T08:41:56.472Z,6.13
2022-12-22T08:46:00.901Z,7.43
2022-12-22T08:50:04.772Z,5.60
2022-12-22T08:54:07.855Z,7.05
2022-12-22T08:58:12.473Z,6.30
2022-12-22T09:02:17.407Z,6.63
2022-12-22T09:06:26.983Z,6.72
2022-12-22T09:10:30.719Z,8.55
2022-12-22T09:14:34.014Z,7.13
2022-12-22T09:18:38.411Z,8.07
2022-12-22T09:22:41.635Z,6.68
2022-12-22T09:26:44.697Z,7.63
2022-12-22T09:30:51.260Z,6.80
2022-12-22T09:34:55.697Z,8.70
2022-12-22T09:38:59.113Z,8.18
2022-12-22T09:43:02.762Z,10.93
2022-12-22T09:47:19.061Z,9.00
2022-12-22T09:51:27.345Z,9.75
2022-12-22T09:55:41.012Z,9.05
2022-12-22T09:59:44.154Z,10.35
2022-12-22T10:03:59.885Z,7.90
2022-12-22T10:08:11.976Z,10.35
2022-12-22T10:12:16.719Z,10.10
2022-12-22T10:16:22.757Z,10.30
2022-12-22T10:20:27.899Z,10.57
2022-12-22T10:24:37.205Z,10.68
2022-12-22T10:28:44.617Z,8.52
2022-12-22T10:33:03.925Z,38.33
2022-12-22T10:37:07.284Z,11.48
2022-12-22T10:41:17.704Z,11.00
2022-12-22T10:45:22.830Z,15.15
2022-12-22T10:49:29.187Z,15.50
2022-12-22T10:53:45.556Z,14.00
2022-12-22T10:57:50.612Z,9.48
2022-12-22T11:01:53.930Z,8.88
2022-12-22T11:05:57.566Z,11.40
2022-12-22T11:10:00.664Z,11.75
2022-12-22T11:14:15.312Z,10.65
2022-12-22T11:18:33.050Z,7.57
2022-12-22T11:22:42.109Z,8.15
2022-12-22T11:26:56.693Z,5.55
2022-12-22T11:31:16.660Z,7.05
2022-12-22T11:35:31.811Z,6.10
2022-12-22T11:39:43.045Z,4.43
2022-12-22T11:44:02.880Z,5.03
2022-12-22T11:48:29.157Z,3.75
2022-12-22T11:52:47.039Z,4.65
2022-12-22T11:56:58.087Z,5.28
2022-12-22T12:01:31.282Z,4.60
2022-12-22T12:05:44.677Z,4.25
2022-12-22T12:09:54.540Z,3.05
2022-12-22T12:14:07.011Z,3.78
2022-12-22T12:18:28.353Z,3.85
2022-12-22T12:22:50.651Z,4.10
2022-12-22T12:27:05.135Z,4.53
2022-12-22T12:31:10.856Z,5.07
2022-12-22T12:35:33.030Z,4.22
2022-12-22T12:39:42.491Z,4.80
2022-12-22T12:43:47.654Z,3.85
2022-12-22T12:47:50.690Z,4.38
2022-12-22T12:51:54.599Z,4.35
2022-12-22T12:56:08.555Z,3.95
2022-12-22T13:00:48.713Z,4.10
2022-12-22T13:05:28.109Z,4.13
2022-12-22T13:13:57.923Z,3.95
2022-12-22T13:18:02.536Z,5.70
2022-12-22T13:22:09.123Z,4.40
2022-12-22T13:26:16.255Z,5.72
2022-12-22T13:30:22.606Z,4.82
2022-12-22T13:34:51.346Z,5.40
2022-12-22T13:39:02.844Z,15.25
2022-12-22T13:43:11.161Z,6.63
2022-12-22T13:47:16.244Z,7.43
2022-12-22T13:51:22.583Z,5.75
2022-12-22T13:55:29.472Z,4.03
2022-12-22T13:59:36.126Z,5.68
2022-12-22T14:04:02.849Z,4.07
2022-12-22T14:08:07.739Z,2.60
2022-12-22T14:12:16.015Z,2.05
2022-12-22T14:16:19.197Z,2.00
2022-12-22T14:20:27.340Z,2.13
2022-12-22T14:24:38.697Z,3.20
2022-12-22T14:28:50.256Z,2.17
2022-12-22T14:32:55.930Z,6.07
2022-12-22T14:37:01.558Z,2.13
2022-12-22T14:41:32.582Z,2.35
2022-12-22T14:45:35.850Z,1.92
2022-12-22T14:49:46.207Z,2.55
2022-12-22T14:53:54.271Z,2.30
2022-12-22T14:58:02.239Z,2.40
2022-12-22T15:02:22.384Z,3.78
2022-12-22T15:06:35.341Z,2.67
2022-12-22T15:10:43.364Z,2.05
2022-12-22T15:14:48.990Z,2.10
2022-12-22T15:18:53.683Z,1.70
2022-12-22T15:22:56.801Z,3.08
2022-12-22T15:27:01.394Z,2.60
2022-12-22T15:31:07.959Z,2.42
2022-12-22T15:35:18.880Z,2.20
2022-12-22T15:39:23.427Z,1.65
2022-12-22T15:43:56.605Z,1.80
2022-12-22T15:47:53.445Z,1.15
2022-12-22T15:51:59.342Z,1.27
2022-12-22T15:56:02.852Z,1.52
2022-12-22T16:00:12.227Z,1.42
2022-12-22T16:04:15.399Z,1.23
2022-12-22T16:08:22.137Z,1.10
2022-12-22T16:12:25.397Z,0.60
2022-12-22T16:16:29.868Z,1.02
2022-12-22T16:20:38.339Z,0.93
2022-12-22T16:24:44.806Z,1.25
2022-12-22T16:28:47.876Z,1.33
2022-12-22T16:32:52.627Z,1.30
2022-12-22T16:36:55.748Z,1.13
2022-12-22T16:40:58.918Z,1.25
2022-12-22T16:45:04.590Z,1.88
2022-12-22T16:49:10.519Z,1.38
2022-12-22T16:53:15.084Z,1.25
2022-12-22T16:57:18.341Z,3.70
2022-12-22T17:01:30.269Z,1.92
2022-12-22T17:05:43.964Z,2.95
2022-12-22T17:09:52.879Z,4.43
2022-12-22T17:14:04.609Z,2.47
2022-12-22T17:18:16.920Z,2.33
2022-12-22T17:22:26.361Z,4.97
2022-12-22T17:26:29.417Z,1.98
2022-12-22T17:30:32.477Z,2.92
2022-12-22T17:34:35.602Z,7.22
2022-12-22T17:38:40.108Z,9.50
2022-12-22T17:42:43.384Z,2.38
2022-12-22T17:46:46.876Z,2.83
2022-12-22T17:50:50.397Z,2.83
2022-12-22T17:54:55.368Z,3.10
2022-12-22T17:58:58.579Z,2.28
2022-12-22T18:03:01.801Z,1.77
2022-12-22T18:07:05.067Z,2.17
2022-12-22T18:11:10.489Z,4.47
2022-12-22T18:15:16.879Z,2.45
2022-12-22T18:19:20.408Z,13.45
2022-12-22T18:23:27.438Z,3.78
2022-12-22T18:27:31.814Z,3.67
2022-12-22T18:31:35.114Z,3.10
2022-12-22T18:35:39.200Z,2.30
2022-12-22T18:39:44.044Z,1.52
2022-12-22T18:43:48.585Z,3.28
2022-12-22T18:47:51.772Z,1.90
2022-12-22T18:51:54.806Z,2.35
2022-12-22T18:55:59.090Z,2.58
2022-12-22T19:00:08.247Z,2.17
2022-12-22T19:04:16.483Z,2.45
2022-12-22T19:08:22.309Z,2.60
2022-12-22T19:12:25.565Z,1.52
2022-12-22T19:16:30.147Z,1.77
2022-12-22T19:20:33.401Z,3.70
2022-12-22T19:24:36.695Z,2.10
2022-12-22T19:28:42.128Z,3.90
2022-12-22T19:32:49.320Z,2.50
2022-12-22T19:36:52.556Z,3.13
2022-12-22T19:41:00.312Z,2.75
2022-12-22T19:45:10.276Z,2.80
2022-12-22T19:49:17.940Z,1.80
2022-12-22T19:53:21.817Z,1.98
2022-12-22T19:57:25.300Z,2.58
2022-12-22T20:01:28.829Z,1.52
2022-12-22T20:05:34.091Z,2.60
2022-12-22T20:09:37.529Z,1.73
2022-12-22T20:13:41.341Z,1.95
2022-12-22T20:17:44.480Z,3.30
2022-12-22T20:21:48.973Z,2.20
2022-12-22T20:25:56.247Z,2.20
2022-12-22T20:29:59.379Z,2.00
2022-12-22T20:34:02.456Z,2.63
2022-12-22T20:38:18.776Z,2.75
2022-12-22T20:42:23.739Z,2.22
2022-12-22T20:46:29.344Z,2.30
2022-12-22T20:50:33.871Z,2.20
2022-12-22T20:54:38.935Z,2.22
2022-12-22T20:58:42.016Z,1.67
2022-12-22T21:02:45.667Z,2.05
2022-12-22T21:06:51.624Z,1.98
2022-12-22T21:10:56.494Z,2.83
2022-12-22T21:14:59.570Z,1.75
2022-12-22T21:19:03.635Z,2.50
2022-12-22T21:23:06.736Z,2.67
2022-12-22T21:27:16.620Z,1.77
2022-12-22T21:31:19.774Z,1.55
2022-12-22T21:35:25.276Z,3.42
2022-12-22T21:39:37.019Z,2.33
2022-12-22T21:43:41.445Z,2.05
2022-12-22T21:47:44.636Z,1.92
2022-12-22T21:51:47.890Z,2.30
2022-12-22T21:55:51.263Z,2.03
2022-12-22T21:59:55.685Z,2.53
2022-12-22T22:03:58.867Z,1.63
2022-12-22T22:08:03.466Z,1.58
2022-12-22T22:12:28.234Z,2.50
2022-12-22T22:16:33.175Z,2.20
2022-12-22T22:20:36.277Z,1.50
2022-12-22T22:24:39.388Z,1.48
2022-12-22T22:28:42.474Z,2.53
2022-12-22T22:32:47.584Z,1.80
2022-12-22T22:36:51.774Z,2.03
2022-12-22T22:40:59.640Z,1.70
2022-12-22T22:45:02.703Z,1.75
2022-12-22T22:49:08.252Z,1.83
2022-12-22T22:53:11.325Z,2.58
2022-12-22T22:57:14.379Z,1.70
2022-12-22T23:01:20.144Z,1.88
2022-12-22T23:05:24.708Z,1.80
2022-12-22T23:09:27.745Z,2.00
2022-12-22T23:13:30.949Z,2.33
2022-12-22T23:17:34.109Z,2.55
2022-12-22T23:21:38.481Z,2.00
2022-12-22T23:25:43.542Z,1.60
2022-12-22T23:29:46.587Z,1.60
2022-12-22T23:33:49.742Z,1.90
2022-12-22T23:37:54.152Z,1.90
2022-12-22T23:41:57.204Z,1.65
2022-12-22T23:46:00.610Z,1.80
2022-12-22T23:50:03.643Z,1.48
2022-12-22T23:54:08.111Z,1.40
2022-12-22T23:58:11.165Z,1.50
